createdAt,value
2018-02-10T00:00:32.008Z,1018.17
2018-02-10T00:01:32.010Z,1018.13
2018-02-10T00:02:32.041Z,1018.19
2018-02-10T00:03:32.008Z,1018.19
2018-02-10T00:04:32.014Z,1018.22
2018-02-10T00:05:32.047Z,1018.23
2018-02-10T00:06:32.001Z,1018.24
2018-02-10T00:07:32.062Z,1018.18
2018-02-10T00:08:32.026Z,1018.2
2018-02-10T00:09:32.022Z,1018.21
2018-02-10T00:10:32.037Z,1018.22
2018-02-10T00:11:32.065Z,1018.23
2018-02-10T00:12:32.035Z,1018.24
2018-02-10T00:13:32.011Z,1018.24
2018-02-10T00:14:32.011Z,1018.23
2018-02-10T00:15:32.072Z,1018.25
2018-02-10T00:16:32.073Z,1018.2
2018-02-10T00:17:32.027Z,1018.22
2018-02-10T00:18:32.008Z,1018.21
2018-02-10T00:19:32.030Z,1018.22
2018-02-10T00:20:32.020Z,1018.2
2018-02-10T00:21:32.012Z,1018.26
2018-02-10T00:22:32.071Z,1018.27
2018-02-10T00:24:32.013Z,1018.29
2018-02-10T00:25:32.021Z,1018.25
2018-02-10T00:26:32.045Z,1018.28
2018-02-10T00:27:32.005Z,1018.28
2018-02-10T00:28:32.018Z,1018.28
2018-02-10T00:29:32.003Z,1018.3
2018-02-10T00:30:32.022Z,1018.28
2018-02-10T00:31:32.022Z,1018.26
2018-02-10T00:32:32.011Z,1018.28
2018-02-10T00:33:32.017Z,1018.26
2018-02-10T00:34:32.056Z,1018.27
2018-02-10T00:35:32.000Z,1018.23
2018-02-10T00:36:32.044Z,1018.26
2018-02-10T00:37:32.116Z,1018.29
2018-02-10T00:38:31.999Z,1018.31
2018-02-10T00:39:32.077Z,1018.33
2018-02-10T00:40:32.017Z,1018.34
2018-02-10T00:41:32.039Z,1018.38
2018-02-10T00:42:32.008Z,1018.34
2018-02-10T00:43:32.008Z,1018.38
2018-02-10T00:44:32.042Z,1018.38
2018-02-10T00:45:32.013Z,1018.37
2018-02-10T00:46:32.073Z,1018.4
2018-02-10T00:47:32.042Z,1018.4
2018-02-10T00:48:32.012Z,1018.33
2018-02-10T00:49:31.993Z,1018.4
2018-02-10T00:50:32.006Z,1018.39
2018-02-10T00:51:32.010Z,1018.36
2018-02-10T00:52:32.023Z,1018.39
2018-02-10T00:53:32.016Z,1018.42
2018-02-10T00:54:32.005Z,1018.39
2018-02-10T00:55:32.004Z,1018.39
2018-02-10T00:56:32.050Z,1018.38
2018-02-10T00:57:32.058Z,1018.44
2018-02-10T00:58:32.056Z,1018.4
2018-02-10T00:59:32.012Z,1018.38
2018-02-10T01:00:32.079Z,1018.44
2018-02-10T01:01:31.997Z,1018.4
2018-02-10T01:02:32.020Z,1018.41
2018-02-10T01:03:31.998Z,1018.45
2018-02-10T01:04:32.003Z,1018.42
2018-02-10T01:05:32.044Z,1018.43
2018-02-10T01:06:32.010Z,1018.48
2018-02-10T01:07:31.994Z,1018.43
2018-02-10T01:08:31.977Z,1018.47
2018-02-10T01:09:32.021Z,1018.43
2018-02-10T01:10:32.046Z,1018.47
2018-02-10T01:11:32.005Z,1018.47
2018-02-10T01:12:31.979Z,1018.43
2018-02-10T01:13:32.006Z,1018.47
2018-02-10T01:14:32.017Z,1018.49
2018-02-10T01:15:31.981Z,1018.49
2018-02-10T01:16:32.025Z,1018.49
2018-02-10T01:17:32.013Z,1018.48
2018-02-10T01:18:32.038Z,1018.46
2018-02-10T01:19:31.996Z,1018.46
2018-02-10T01:20:32.001Z,1018.49
2018-02-10T01:21:32.119Z,1018.47
2018-02-10T01:22:31.997Z,1018.42
2018-02-10T01:23:32.030Z,1018.4
2018-02-10T01:24:31.996Z,1018.4
2018-02-10T01:25:31.994Z,1018.39
2018-02-10T01:26:31.998Z,1018.37
2018-02-10T01:27:32.000Z,1018.35
2018-02-10T01:28:32.194Z,1018.4
2018-02-10T01:29:31.992Z,1018.4
2018-02-10T01:30:31.991Z,1018.43
2018-02-10T01:31:31.997Z,1018.46
2018-02-10T01:32:31.985Z,1018.49
2018-02-10T01:33:32.039Z,1018.49
2018-02-10T01:34:31.995Z,1018.51
2018-02-10T01:35:32.003Z,1018.52
2018-02-10T01:36:32.116Z,1018.53
2018-02-10T01:37:31.988Z,1018.53
2018-02-10T01:38:31.980Z,1018.56
2018-02-10T01:39:31.970Z,1018.56
2018-02-10T01:40:31.971Z,1018.5
2018-02-10T01:41:31.992Z,1018.51
2018-02-10T01:42:32.012Z,1018.49
2018-02-10T01:43:32.009Z,1018.54
2018-02-10T01:44:31.982Z,1018.54
2018-02-10T01:45:31.973Z,1018.5
2018-02-10T01:46:31.981Z,1018.5
2018-02-10T01:47:31.986Z,1018.46
2018-02-10T01:48:31.990Z,1018.48
2018-02-10T01:49:31.992Z,1018.45
2018-02-10T01:50:31.974Z,1018.49
2018-02-10T01:51:31.985Z,1018.46
2018-02-10T01:52:31.975Z,1018.48
2018-02-10T01:53:32.038Z,1018.46
2018-02-10T01:54:31.983Z,1018.49
2018-02-10T01:55:31.986Z,1018.48
2018-02-10T01:56:31.991Z,1018.47
2018-02-10T01:57:32.018Z,1018.49
2018-02-10T01:58:32.009Z,1018.51
2018-02-10T01:59:31.982Z,1018.51
2018-02-10T02:00:32.025Z,1018.52
2018-02-10T02:01:31.971Z,1018.46
2018-02-10T02:02:32.042Z,1018.42
2018-02-10T02:03:32.012Z,1018.48
2018-02-10T02:04:32.027Z,1018.45
2018-02-10T02:05:32.008Z,1018.47
2018-02-10T02:06:31.962Z,1018.46
2018-02-10T02:07:31.980Z,1018.46
2018-02-10T02:08:31.984Z,1018.47
2018-02-10T02:09:32.031Z,1018.46
2018-02-10T02:10:32.020Z,1018.48
2018-02-10T02:11:31.968Z,1018.49
2018-02-10T02:12:32.021Z,1018.46
2018-02-10T02:13:32.032Z,1018.5
2018-02-10T02:14:31.969Z,1018.49
2018-02-10T02:15:31.978Z,1018.47
2018-02-10T02:16:31.969Z,1018.46
2018-02-10T02:17:32.037Z,1018.42
2018-02-10T02:18:32.022Z,1018.42
2018-02-10T02:19:32.013Z,1018.47
2018-02-10T02:20:31.966Z,1018.47
2018-02-10T02:21:32.025Z,1018.48
2018-02-10T02:22:32.034Z,1018.48
2018-02-10T02:23:32.031Z,1018.49
2018-02-10T02:24:31.961Z,1018.48
2018-02-10T02:25:31.991Z,1018.49
2018-02-10T02:26:32.018Z,1018.5
2018-02-10T02:27:31.959Z,1018.52
2018-02-10T02:28:32.014Z,1018.51
2018-02-10T02:29:32.013Z,1018.5
2018-02-10T02:30:31.993Z,1018.54
2018-02-10T02:31:32.006Z,1018.56
2018-02-10T02:32:32.003Z,1018.55
2018-02-10T02:33:32.015Z,1018.54
2018-02-10T02:34:32.009Z,1018.6
2018-02-10T02:35:31.960Z,1018.61
2018-02-10T02:36:31.972Z,1018.65
2018-02-10T02:37:31.982Z,1018.59
2018-02-10T02:38:32.063Z,1018.62
2018-02-10T02:39:32.022Z,1018.62
2018-02-10T02:40:31.910Z,1018.64
2018-02-10T02:41:32.001Z,1018.61
2018-02-10T02:42:32.009Z,1018.6
2018-02-10T02:43:31.999Z,1018.65
2018-02-10T02:44:31.956Z,1018.59
2018-02-10T02:45:32.025Z,1018.6
2018-02-10T02:46:31.998Z,1018.63
2018-02-10T02:47:31.977Z,1018.59
2018-02-10T02:48:31.983Z,1018.58
2018-02-10T02:49:31.968Z,1018.56
2018-02-10T02:50:32.014Z,1018.58
2018-02-10T02:51:31.970Z,1018.61
2018-02-10T02:52:32.014Z,1018.61
2018-02-10T02:53:32.035Z,1018.64
2018-02-10T02:54:31.969Z,1018.62
2018-02-10T02:55:31.959Z,1018.59
2018-02-10T02:56:31.961Z,1018.55
2018-02-10T02:57:32.015Z,1018.6
2018-02-10T02:58:31.962Z,1018.61
2018-02-10T02:59:31.959Z,1018.58
2018-02-10T03:00:31.947Z,1018.6
2018-02-10T03:01:32.000Z,1018.56
2018-02-10T03:02:31.958Z,1018.56
2018-02-10T03:03:31.953Z,1018.55
2018-02-10T03:04:31.957Z,1018.58
2018-02-10T03:05:31.950Z,1018.54
2018-02-10T03:06:31.982Z,1018.6
2018-02-10T03:07:31.998Z,1018.59
2018-02-10T03:08:31.990Z,1018.58
2018-02-10T03:09:32.029Z,1018.6
2018-02-10T03:10:31.954Z,1018.56
2018-02-10T03:11:31.968Z,1018.59
2018-02-10T03:12:31.986Z,1018.6
2018-02-10T03:13:31.959Z,1018.62
2018-02-10T03:14:31.976Z,1018.62
2018-02-10T03:15:31.968Z,1018.6
2018-02-10T03:16:31.950Z,1018.61
2018-02-10T03:17:31.953Z,1018.64
2018-02-10T03:18:31.994Z,1018.64
2018-02-10T03:19:32.002Z,1018.63
2018-02-10T03:20:31.987Z,1018.63
2018-02-10T03:21:31.948Z,1018.65
2018-02-10T03:22:31.989Z,1018.64
2018-02-10T03:23:31.988Z,1018.7
2018-02-10T03:24:31.950Z,1018.68
2018-02-10T03:25:31.957Z,1018.68
2018-02-10T03:26:31.950Z,1018.68
2018-02-10T03:27:31.934Z,1018.7
2018-02-10T03:28:31.950Z,1018.68
2018-02-10T03:29:31.986Z,1018.7
2018-02-10T03:30:32.020Z,1018.69
2018-02-10T03:31:31.953Z,1018.69
2018-02-10T03:32:31.999Z,1018.67
2018-02-10T03:33:31.940Z,1018.65
2018-02-10T03:34:31.951Z,1018.67
2018-02-10T03:35:31.995Z,1018.71
2018-02-10T03:36:31.985Z,1018.64
2018-02-10T03:37:31.974Z,1018.7
2018-02-10T03:38:31.946Z,1018.69
2018-02-10T03:39:31.991Z,1018.66
2018-02-10T03:40:31.950Z,1018.68
2018-02-10T03:41:31.981Z,1018.73
2018-02-10T03:42:31.944Z,1018.67
2018-02-10T03:43:31.940Z,1018.73
2018-02-10T03:44:31.930Z,1018.74
2018-02-10T03:45:31.949Z,1018.73
2018-02-10T03:46:31.936Z,1018.76
2018-02-10T03:47:31.961Z,1018.74
2018-02-10T03:48:31.942Z,1018.77
2018-02-10T03:49:31.924Z,1018.78
2018-02-10T03:50:31.985Z,1018.78
2018-02-10T03:51:31.960Z,1018.8
2018-02-10T03:52:31.936Z,1018.84
2018-02-10T03:53:31.979Z,1018.83
2018-02-10T03:54:31.961Z,1018.82
2018-02-10T03:55:31.935Z,1018.84
2018-02-10T03:56:31.976Z,1018.89
2018-02-10T03:57:31.942Z,1018.87
2018-02-10T03:58:31.928Z,1018.86
2018-02-10T03:59:31.974Z,1018.87
2018-02-10T04:00:31.944Z,1018.93
2018-02-10T04:01:31.962Z,1018.88
2018-02-10T04:02:31.944Z,1018.87
2018-02-10T04:03:31.943Z,1018.89
2018-02-10T04:04:31.971Z,1018.89
2018-02-10T04:05:31.993Z,1018.89
2018-02-10T04:06:31.978Z,1018.91
2018-02-10T04:07:31.965Z,1018.91
2018-02-10T04:08:31.927Z,1018.91
2018-02-10T04:09:31.925Z,1018.93
2018-02-10T04:10:31.934Z,1018.92
2018-02-10T04:11:31.967Z,1018.91
2018-02-10T04:12:31.971Z,1018.92
2018-02-10T04:13:31.926Z,1018.92
2018-02-10T04:14:31.937Z,1018.92
2018-02-10T04:15:31.947Z,1018.96
2018-02-10T04:16:31.940Z,1018.94
2018-02-10T04:17:31.934Z,1018.92
2018-02-10T04:18:31.919Z,1018.97
2018-02-10T04:19:31.924Z,1018.97
2018-02-10T04:20:31.974Z,1018.97
2018-02-10T04:21:31.928Z,1018.98
2018-02-10T04:22:31.920Z,1018.97
2018-02-10T04:23:31.932Z,1018.99
2018-02-10T04:24:31.961Z,1018.99
2018-02-10T04:25:31.932Z,1018.95
2018-02-10T04:26:31.994Z,1019
2018-02-10T04:27:31.920Z,1019
2018-02-10T04:28:31.968Z,1018.99
2018-02-10T04:29:31.943Z,1018.98
2018-02-10T04:30:31.914Z,1018.98
2018-02-10T04:31:31.985Z,1018.97
2018-02-10T04:32:31.954Z,1019.02
2018-02-10T04:33:31.919Z,1018.98
2018-02-10T04:34:31.974Z,1018.98
2018-02-10T04:35:31.904Z,1019.01
2018-02-10T04:36:31.967Z,1019.04
2018-02-10T04:37:31.971Z,1019.01
2018-02-10T04:38:31.965Z,1019.01
2018-02-10T04:39:32.021Z,1018.99
2018-02-10T04:40:31.912Z,1019
2018-02-10T04:41:31.967Z,1019
2018-02-10T04:42:31.924Z,1018.98
2018-02-10T04:43:31.926Z,1019
2018-02-10T04:44:31.918Z,1019.04
2018-02-10T04:45:31.913Z,1019.04
2018-02-10T04:46:31.971Z,1019.05
2018-02-10T04:47:31.920Z,1019.05
2018-02-10T04:48:31.934Z,1019.08
2018-02-10T04:49:31.981Z,1019.08
2018-02-10T04:50:31.948Z,1019.1
2018-02-10T04:51:31.960Z,1019.15
2018-02-10T04:52:31.913Z,1019.15
2018-02-10T04:53:31.918Z,1019.13
2018-02-10T04:54:31.949Z,1019.14
2018-02-10T04:55:31.957Z,1019.17
2018-02-10T04:56:31.913Z,1019.22
2018-02-10T04:57:32.090Z,1019.23
2018-02-10T04:58:31.918Z,1019.19
2018-02-10T04:59:31.948Z,1019.16
2018-02-10T05:00:31.963Z,1019.22
2018-02-10T05:01:32.018Z,1019.23
2018-02-10T05:02:31.938Z,1019.2
2018-02-10T05:03:31.950Z,1019.19
2018-02-10T05:04:31.933Z,1019.19
2018-02-10T05:05:31.906Z,1019.2
2018-02-10T05:06:31.916Z,1019.22
2018-02-10T05:07:31.956Z,1019.22
2018-02-10T05:08:31.910Z,1019.19
2018-02-10T05:09:32.016Z,1019.2
2018-02-10T05:10:31.917Z,1019.19
2018-02-10T05:11:31.910Z,1019.22
2018-02-10T05:12:31.914Z,1019.22
2018-02-10T05:13:31.953Z,1019.2
2018-02-10T05:14:31.958Z,1019.2
2018-02-10T05:15:31.902Z,1019.21
2018-02-10T05:16:31.957Z,1019.21
2018-02-10T05:17:32.006Z,1019.22
2018-02-10T05:18:31.909Z,1019.21
2018-02-10T05:19:31.914Z,1019.24
2018-02-10T05:20:31.902Z,1019.24
2018-02-10T05:21:31.909Z,1019.2
2018-02-10T05:22:31.904Z,1019.24
2018-02-10T05:23:31.895Z,1019.22
2018-02-10T05:24:31.899Z,1019.25
2018-02-10T05:25:31.902Z,1019.26
2018-02-10T05:26:31.904Z,1019.23
2018-02-10T05:27:31.908Z,1019.22
2018-02-10T05:28:31.897Z,1019.21
2018-02-10T05:29:31.912Z,1019.2
2018-02-10T05:30:31.907Z,1019.19
2018-02-10T05:31:31.913Z,1019.18
2018-02-10T05:32:31.903Z,1019.16
2018-02-10T05:33:31.900Z,1019.17
2018-02-10T05:34:31.926Z,1019.16
2018-02-10T05:35:31.898Z,1019.21
2018-02-10T05:36:31.945Z,1019.21
2018-02-10T05:37:31.927Z,1019.22
2018-02-10T05:38:31.923Z,1019.25
2018-02-10T05:39:31.898Z,1019.24
2018-02-10T05:40:31.908Z,1019.25
2018-02-10T05:41:31.905Z,1019.24
2018-02-10T05:42:31.893Z,1019.26
2018-02-10T05:43:31.901Z,1019.27
2018-02-10T05:44:31.917Z,1019.31
2018-02-10T05:45:31.945Z,1019.26
2018-02-10T05:46:31.903Z,1019.31
2018-02-10T05:47:31.935Z,1019.25
2018-02-10T05:48:31.928Z,1019.3
2018-02-10T05:49:31.902Z,1019.32
2018-02-10T05:50:31.950Z,1019.29
2018-02-10T05:51:31.904Z,1019.33
2018-02-10T05:52:31.906Z,1019.37
2018-02-10T05:53:31.910Z,1019.37
2018-02-10T05:54:31.892Z,1019.39
2018-02-10T05:55:31.887Z,1019.38
2018-02-10T05:56:31.887Z,1019.37
2018-02-10T05:57:31.902Z,1019.4
2018-02-10T05:58:31.908Z,1019.39
2018-02-10T05:59:31.920Z,1019.44
2018-02-10T06:00:31.890Z,1019.46
2018-02-10T06:01:31.933Z,1019.47
2018-02-10T06:02:31.880Z,1019.47
2018-02-10T06:03:31.982Z,1019.46
2018-02-10T06:04:31.893Z,1019.51
2018-02-10T06:05:31.933Z,1019.49
2018-02-10T06:06:31.902Z,1019.51
2018-02-10T06:07:31.904Z,1019.53
2018-02-10T06:08:31.912Z,1019.56
2018-02-10T06:09:31.874Z,1019.52
2018-02-10T06:10:31.900Z,1019.57
2018-02-10T06:11:31.889Z,1019.6
2018-02-10T06:12:31.903Z,1019.61
2018-02-10T06:13:31.895Z,1019.61
2018-02-10T06:14:31.902Z,1019.62
2018-02-10T06:15:31.886Z,1019.67
2018-02-10T06:16:31.927Z,1019.63
2018-02-10T06:17:31.889Z,1019.66
2018-02-10T06:18:31.906Z,1019.65
2018-02-10T06:19:31.926Z,1019.65
2018-02-10T06:20:31.894Z,1019.66
2018-02-10T06:21:31.922Z,1019.65
2018-02-10T06:22:31.897Z,1019.67
2018-02-10T06:23:32.043Z,1019.69
2018-02-10T06:24:31.887Z,1019.69
2018-02-10T06:25:31.929Z,1019.71
2018-02-10T06:26:31.878Z,1019.67
2018-02-10T06:27:31.932Z,1019.7
2018-02-10T06:28:31.908Z,1019.7
2018-02-10T06:29:31.877Z,1019.69
2018-02-10T06:30:31.869Z,1019.71
2018-02-10T06:31:31.888Z,1019.73
2018-02-10T06:32:31.878Z,1019.75
2018-02-10T06:33:31.928Z,1019.77
2018-02-10T06:34:31.900Z,1019.78
2018-02-10T06:35:31.873Z,1019.8
2018-02-10T06:36:31.928Z,1019.8
2018-02-10T06:37:31.872Z,1019.76
2018-02-10T06:38:31.922Z,1019.72
2018-02-10T06:39:31.928Z,1019.74
2018-02-10T06:40:32.035Z,1019.8
2018-02-10T06:41:31.890Z,1019.8
2018-02-10T06:42:31.894Z,1019.83
2018-02-10T06:43:31.883Z,1019.81
2018-02-10T06:44:31.907Z,1019.79
2018-02-10T06:45:31.930Z,1019.88
2018-02-10T06:46:31.878Z,1019.87
2018-02-10T06:47:31.924Z,1019.83
2018-02-10T06:48:31.912Z,1019.83
2018-02-10T06:50:31.923Z,1019.89
2018-02-10T06:51:31.871Z,1019.9
2018-02-10T06:52:31.922Z,1019.92
2018-02-10T06:53:31.885Z,1019.93
2018-02-10T06:54:31.945Z,1019.92
2018-02-10T06:55:31.887Z,1019.92
2018-02-10T06:57:31.912Z,1019.95
2018-02-10T06:58:31.863Z,1019.93
2018-02-10T06:59:31.877Z,1019.93
2018-02-10T07:00:31.875Z,1019.95
2018-02-10T07:01:31.848Z,1019.97
2018-02-10T07:02:31.879Z,1019.9
2018-02-10T07:03:31.854Z,1019.99
2018-02-10T07:04:31.941Z,1020.03
2018-02-10T07:05:31.853Z,1020.03
2018-02-10T07:06:31.894Z,1020.01
2018-02-10T07:07:31.842Z,1020.06
2018-02-10T07:08:31.851Z,1020.07
2018-02-10T07:09:31.875Z,1020.03
2018-02-10T07:10:31.871Z,1020.06
2018-02-10T07:11:31.853Z,1020.06
2018-02-10T07:12:31.860Z,1020.03
2018-02-10T07:13:31.872Z,1020.04
2018-02-10T07:14:31.859Z,1020.08
2018-02-10T07:15:31.847Z,1020.1
2018-02-10T07:16:31.857Z,1020.04
2018-02-10T07:17:31.857Z,1020.08
2018-02-10T07:18:31.854Z,1020.02
2018-02-10T07:19:31.851Z,1020.04
2018-02-10T07:20:31.869Z,1020.04
2018-02-10T07:21:31.901Z,1020.01
2018-02-10T07:22:31.844Z,1020
2018-02-10T07:23:31.837Z,1019.99
2018-02-10T07:24:31.850Z,1020.04
2018-02-10T07:25:31.845Z,1020.02
2018-02-10T07:26:31.869Z,1020.04
2018-02-10T07:27:31.849Z,1020.08
2018-02-10T07:28:31.848Z,1020.1
2018-02-10T07:29:31.866Z,1020.1
2018-02-10T07:30:31.851Z,1020.09
2018-02-10T07:31:31.841Z,1020.1
2018-02-10T07:32:31.891Z,1020.11
2018-02-10T07:33:31.844Z,1020.12
2018-02-10T07:34:31.864Z,1020.15
2018-02-10T07:35:31.900Z,1020.14
2018-02-10T07:36:31.850Z,1020.18
2018-02-10T07:37:31.848Z,1020.18
2018-02-10T07:38:31.851Z,1020.15
2018-02-10T07:39:31.855Z,1020.16
2018-02-10T07:40:31.869Z,1020.2
2018-02-10T07:41:31.842Z,1020.2
2018-02-10T07:42:31.835Z,1020.2
2018-02-10T07:43:31.850Z,1020.23
2018-02-10T07:44:31.844Z,1020.27
2018-02-10T07:45:31.862Z,1020.3
2018-02-10T07:46:31.909Z,1020.29
2018-02-10T07:47:31.822Z,1020.31
2018-02-10T07:48:31.849Z,1020.28
2018-02-10T07:49:31.829Z,1020.31
2018-02-10T07:50:31.838Z,1020.31
2018-02-10T07:51:31.847Z,1020.3
2018-02-10T07:52:31.832Z,1020.33
2018-02-10T07:53:31.888Z,1020.34
2018-02-10T07:54:31.836Z,1020.28
2018-02-10T07:55:31.833Z,1020.33
2018-02-10T07:56:31.834Z,1020.32
2018-02-10T07:57:31.855Z,1020.33
2018-02-10T07:58:31.853Z,1020.3
2018-02-10T07:59:31.892Z,1020.29
2018-02-10T08:00:31.860Z,1020.31
2018-02-10T08:01:31.829Z,1020.34
2018-02-10T08:02:32.000Z,1020.33
2018-02-10T08:03:31.877Z,1020.35
2018-02-10T08:04:31.888Z,1020.36
2018-02-10T08:05:31.832Z,1020.33
2018-02-10T08:06:31.865Z,1020.38
2018-02-10T08:07:32.013Z,1020.35
2018-02-10T08:08:31.895Z,1020.32
2018-02-10T08:09:31.797Z,1020.32
2018-02-10T08:10:31.786Z,1020.31
2018-02-10T08:11:31.808Z,1020.32
2018-02-10T08:12:31.824Z,1020.29
2018-02-10T08:13:31.808Z,1020.32
2018-02-10T08:14:31.797Z,1020.34
2018-02-10T08:15:31.799Z,1020.37
2018-02-10T08:16:31.897Z,1020.38
2018-02-10T08:17:31.794Z,1020.37
2018-02-10T08:18:31.820Z,1020.4
2018-02-10T08:19:31.798Z,1020.37
2018-02-10T08:20:31.786Z,1020.36
2018-02-10T08:21:31.802Z,1020.38
2018-02-10T08:22:31.803Z,1020.38
2018-02-10T08:23:31.836Z,1020.4
2018-02-10T08:24:31.818Z,1020.41
2018-02-10T08:25:31.800Z,1020.41
2018-02-10T08:26:31.790Z,1020.42
2018-02-10T08:27:31.786Z,1020.51
2018-02-10T08:28:31.791Z,1020.51
2018-02-10T08:29:31.815Z,1020.51
2018-02-10T08:30:31.788Z,1020.53
2018-02-10T08:31:31.789Z,1020.56
2018-02-10T08:32:31.795Z,1020.55
2018-02-10T08:33:31.876Z,1020.5
2018-02-10T08:34:31.796Z,1020.52
2018-02-10T08:35:31.790Z,1020.53
2018-02-10T08:36:31.833Z,1020.5
2018-02-10T08:37:31.788Z,1020.56
2018-02-10T08:38:31.805Z,1020.55
2018-02-10T08:39:31.786Z,1020.56
2018-02-10T08:40:31.799Z,1020.53
2018-02-10T08:41:31.879Z,1020.57
2018-02-10T08:42:31.799Z,1020.61
2018-02-10T08:43:31.815Z,1020.56
2018-02-10T08:44:31.797Z,1020.59
2018-02-10T08:45:31.796Z,1020.59
2018-02-10T08:46:31.779Z,1020.56
2018-02-10T08:47:31.781Z,1020.61
2018-02-10T08:48:31.823Z,1020.61
2018-02-10T08:49:31.785Z,1020.59
2018-02-10T08:50:31.783Z,1020.64
2018-02-10T08:51:31.797Z,1020.62
2018-02-10T08:52:31.770Z,1020.65
2018-02-10T08:53:31.814Z,1020.65
2018-02-10T08:54:31.802Z,1020.65
2018-02-10T08:55:31.806Z,1020.66
2018-02-10T08:56:31.778Z,1020.66
2018-02-10T08:57:31.812Z,1020.66
2018-02-10T08:58:31.817Z,1020.63
2018-02-10T08:59:31.786Z,1020.64
2018-02-10T09:00:31.784Z,1020.65
2018-02-10T09:01:31.837Z,1020.65
2018-02-10T09:02:31.777Z,1020.67
2018-02-10T09:03:31.781Z,1020.66
2018-02-10T09:04:31.792Z,1020.68
2018-02-10T09:05:31.782Z,1020.67
2018-02-10T09:06:31.795Z,1020.68
2018-02-10T09:07:31.813Z,1020.69
2018-02-10T09:08:31.780Z,1020.74
2018-02-10T09:09:31.817Z,1020.68
2018-02-10T09:10:31.787Z,1020.7
2018-02-10T09:11:31.795Z,1020.73
2018-02-10T09:12:31.779Z,1020.7
2018-02-10T09:13:31.787Z,1020.73
2018-02-10T09:14:31.783Z,1020.75
2018-02-10T09:15:32.058Z,1020.71
2018-02-10T09:16:31.872Z,1020.7
2018-02-10T09:17:31.823Z,1020.73
2018-02-10T09:18:31.777Z,1020.7
2018-02-10T09:19:31.774Z,1020.73
2018-02-10T09:20:31.843Z,1020.75
2018-02-10T09:21:31.767Z,1020.75
2018-02-10T09:22:31.801Z,1020.73
2018-02-10T09:23:31.774Z,1020.69
2018-02-10T09:24:31.778Z,1020.7
2018-02-10T09:25:31.823Z,1020.65
2018-02-10T09:26:31.795Z,1020.69
2018-02-10T09:27:31.795Z,1020.68
2018-02-10T09:28:31.789Z,1020.66
2018-02-10T09:29:31.807Z,1020.62
2018-02-10T09:30:31.800Z,1020.7
2018-02-10T09:31:32.035Z,1020.66
2018-02-10T09:32:31.793Z,1020.7
2018-02-10T09:33:31.774Z,1020.66
2018-02-10T09:34:31.759Z,1020.66
2018-02-10T09:35:31.759Z,1020.7
2018-02-10T09:36:31.803Z,1020.73
2018-02-10T09:37:31.781Z,1020.68
2018-02-10T09:38:31.779Z,1020.71
2018-02-10T09:39:31.784Z,1020.72
2018-02-10T09:41:31.779Z,1020.78
2018-02-10T09:42:31.773Z,1020.76
2018-02-10T09:43:31.791Z,1020.73
2018-02-10T09:44:31.802Z,1020.77
2018-02-10T09:45:31.772Z,1020.74
2018-02-10T09:46:31.765Z,1020.77
2018-02-10T09:47:31.948Z,1020.8
2018-02-10T09:48:31.781Z,1020.78
2018-02-10T09:49:31.792Z,1020.77
2018-02-10T09:50:31.765Z,1020.78
2018-02-10T09:51:31.760Z,1020.81
2018-02-10T09:52:31.802Z,1020.82
2018-02-10T09:53:31.831Z,1020.84
2018-02-10T09:54:31.769Z,1020.84
2018-02-10T09:55:31.794Z,1020.86
2018-02-10T09:56:31.832Z,1020.88
2018-02-10T09:57:31.894Z,1020.87
2018-02-10T09:58:31.820Z,1020.87
2018-02-10T09:59:31.779Z,1020.83
2018-02-10T10:00:31.806Z,1020.82
2018-02-10T10:01:32.093Z,1020.77
2018-02-10T10:02:31.783Z,1020.78
2018-02-10T10:03:31.838Z,1020.74
2018-02-10T10:04:31.775Z,1020.73
2018-02-10T10:05:31.776Z,1020.73
2018-02-10T10:06:31.791Z,1020.73
2018-02-10T10:07:31.762Z,1020.73
2018-02-10T10:08:31.813Z,1020.73
2018-02-10T10:09:31.752Z,1020.72
2018-02-10T10:10:31.772Z,1020.7
2018-02-10T10:11:31.788Z,1020.69
2018-02-10T10:12:31.902Z,1020.65
2018-02-10T10:13:31.756Z,1020.69
2018-02-10T10:14:31.755Z,1020.69
2018-02-10T10:15:31.758Z,1020.71
2018-02-10T10:16:31.794Z,1020.67
2018-02-10T10:17:31.794Z,1020.7
2018-02-10T10:18:31.753Z,1020.66
2018-02-10T10:19:31.774Z,1020.7
2018-02-10T10:20:31.852Z,1020.65
2018-02-10T10:21:31.839Z,1020.69
2018-02-10T10:22:31.824Z,1020.69
2018-02-10T10:23:31.825Z,1020.67
2018-02-10T10:24:31.826Z,1020.67
2018-02-10T10:25:31.818Z,1020.66
2018-02-10T10:26:31.806Z,1020.65
2018-02-10T10:27:31.849Z,1020.64
2018-02-10T10:48:35.262Z,1020.71
2018-02-10T10:48:47.677Z,1020.72
2018-02-10T10:49:47.267Z,1020.72
2018-02-10T10:50:36.549Z,1020.76
2018-02-10T10:51:35.859Z,1020.75
2018-02-10T10:52:35.870Z,1020.72
2018-02-10T10:53:35.876Z,1020.76
2018-02-10T10:54:35.867Z,1020.75
2018-02-10T10:55:35.856Z,1020.74
2018-02-10T10:56:35.855Z,1020.77
2018-02-10T10:57:35.868Z,1020.71
2018-02-10T10:58:35.879Z,1020.74
2018-02-10T10:59:35.981Z,1020.71
2018-02-10T11:00:35.974Z,1020.72
2018-02-10T11:01:35.867Z,1020.73
2018-02-10T11:02:35.848Z,1020.73
2018-02-10T11:03:35.870Z,1020.75
2018-02-10T11:04:35.858Z,1020.73
2018-02-10T11:05:35.865Z,1020.74
2018-02-10T11:06:36.062Z,1020.72
2018-02-10T11:07:35.883Z,1020.73
2018-02-10T11:08:35.855Z,1020.72
2018-02-10T11:09:35.883Z,1020.72
2018-02-10T11:10:35.851Z,1020.72
2018-02-10T11:11:35.911Z,1020.71
2018-02-10T11:12:35.868Z,1020.71
2018-02-10T11:13:35.872Z,1020.68
2018-02-10T11:14:35.858Z,1020.68
2018-02-10T11:15:35.901Z,1020.65
2018-02-10T11:16:50.089Z,1020.62
2018-02-10T11:17:49.574Z,1020.66
2018-02-10T11:18:46.489Z,1020.68
2018-02-10T11:19:46.099Z,1020.63
2018-02-10T11:20:46.084Z,1020.62
2018-02-10T11:21:46.079Z,1020.59
2018-02-10T11:22:46.087Z,1020.62
2018-02-10T11:23:13.336Z,1020.58
2018-02-10T11:24:12.936Z,1020.57
2018-02-10T11:25:24.527Z,1020.57
2018-02-10T11:26:24.064Z,1020.56
2018-02-10T11:27:24.112Z,1020.57
2018-02-10T11:28:24.069Z,1020.55
2018-02-10T11:29:24.030Z,1020.52
2018-02-10T11:32:24.241Z,1020.52
2018-02-10T11:33:24.210Z,1020.5
2018-02-10T11:34:24.115Z,1020.5
2018-02-10T11:35:24.112Z,1020.53
2018-02-10T11:36:24.131Z,1020.53
2018-02-10T11:37:24.221Z,1020.53
2018-02-10T11:39:24.061Z,1020.49
2018-02-10T11:40:24.078Z,1020.49
2018-02-10T11:41:24.064Z,1020.5
2018-02-10T11:42:24.140Z,1020.49
2018-02-10T11:43:24.189Z,1020.45
2018-02-10T11:44:24.173Z,1020.46
2018-02-10T11:45:24.079Z,1020.45
2018-02-10T11:47:24.130Z,1020.47
2018-02-10T11:48:24.077Z,1020.42
2018-02-10T11:49:24.160Z,1020.44
2018-02-10T11:50:24.075Z,1020.44
2018-02-10T11:51:24.088Z,1020.42
2018-02-10T11:52:24.083Z,1020.45
2018-02-10T11:53:24.085Z,1020.47
2018-02-10T11:54:24.054Z,1020.52
2018-02-10T11:55:24.200Z,1020.47
2018-02-10T11:56:24.133Z,1020.47
2018-02-10T11:57:24.144Z,1020.49
2018-02-10T11:58:24.243Z,1020.48
2018-02-10T11:59:24.223Z,1020.48
2018-02-10T12:00:24.193Z,1020.52
2018-02-10T12:01:24.080Z,1020.48
2018-02-10T12:02:24.122Z,1020.52
2018-02-10T12:03:24.108Z,1020.5
2018-02-10T12:04:24.166Z,1020.53
2018-02-10T12:05:24.079Z,1020.55
2018-02-10T12:06:24.090Z,1020.54
2018-02-10T12:07:24.085Z,1020.54
2018-02-10T12:08:24.086Z,1020.52
2018-02-10T12:09:24.113Z,1020.52
2018-02-10T12:10:24.073Z,1020.48
2018-02-10T12:11:24.110Z,1020.48
2018-02-10T12:12:24.114Z,1020.48
2018-02-10T12:13:24.121Z,1020.51
2018-02-10T12:14:24.092Z,1020.47
2018-02-10T12:15:24.155Z,1020.46
2018-02-10T12:16:24.079Z,1020.47
2018-02-10T12:17:24.173Z,1020.44
2018-02-10T12:18:10.955Z,1020.4
2018-02-10T12:19:10.521Z,1020.43
2018-02-10T12:19:23.272Z,1020.44
2018-02-10T12:20:22.980Z,1020.43
2018-02-10T12:20:38.080Z,1020.39
2018-02-10T12:21:35.325Z,1020.4
2018-02-10T12:21:48.000Z,1020.4
2018-02-10T12:22:47.578Z,1020.4
2018-02-10T12:23:00.611Z,1020.46
2018-02-10T12:23:59.930Z,1020.46
2018-02-10T12:24:12.744Z,1020.45
2018-02-10T12:25:12.373Z,1020.41
2018-02-10T12:25:25.184Z,1020.38
2018-02-10T12:26:24.789Z,1020.38
2018-02-10T12:26:37.926Z,1020.38
2018-02-10T12:27:46.874Z,1020.34
2018-02-10T12:28:46.539Z,1020.34
2018-02-10T12:29:46.752Z,1020.36